sensor_id;sensor_type;location;lat;lon;timestamp;P1;durP1;ratioP1;P2;durP2;ratioP2
29320;SDS011;16323;51.130;6.612;2023-02-28T06:19:02;2.63;;;1.30;;
29320;SDS011;16323;51.130;6.612;2023-02-28T07:05:54;6.53;;;1.58;;
29320;SDS011;16323;51.130;6.612;2023-02-28T07:08:21;2.47;;;1.52;;
29320;SDS011;16323;51.130;6.612;2023-02-28T07:10:51;2.35;;;1.20;;
29320;SDS011;16323;51.130;6.612;2023-02-28T07:13:19;1.63;;;1.15;;
29320;SDS011;16323;51.130;6.612;2023-02-28T07:15:52;2.17;;;1.27;;
29320;SDS011;16323;51.130;6.612;2023-02-28T07:18:19;1.63;;;1.05;;
29320;SDS011;16323;51.130;6.612;2023-02-28T07:20:46;1.48;;;1.20;;
29320;SDS011;16323;51.130;6.612;2023-02-28T07:23:14;2.45;;;1.20;;
29320;SDS011;16323;51.130;6.612;2023-02-28T07:25:41;1.98;;;1.35;;
29320;SDS011;16323;51.130;6.612;2023-02-28T07:28:08;2.13;;;0.93;;
29320;SDS011;16323;51.130;6.612;2023-02-28T07:30:35;2.40;;;1.00;;
29320;SDS011;16323;51.130;6.612;2023-02-28T07:33:02;2.70;;;1.10;;
29320;SDS011;16323;51.130;6.612;2023-02-28T07:35:29;1.58;;;0.90;;
29320;SDS011;16323;51.130;6.612;2023-02-28T07:37:56;2.95;;;1.08;;
29320;SDS011;16323;51.130;6.612;2023-02-28T07:40:25;2.55;;;1.10;;
29320;SDS011;16323;51.130;6.612;2023-02-28T07:42:52;2.00;;;0.90;;
29320;SDS011;16323;51.130;6.612;2023-02-28T07:45:19;1.73;;;1.17;;
29320;SDS011;16323;51.130;6.612;2023-02-28T08:45:45;1.13;;;0.65;;
29320;SDS011;16323;51.130;6.612;2023-02-28T08:48:17;1.63;;;0.85;;
29320;SDS011;16323;51.130;6.612;2023-02-28T08:50:45;1.15;;;0.60;;
29320;SDS011;16323;51.130;6.612;2023-02-28T08:53:20;2.50;;;0.80;;
29320;SDS011;16323;51.130;6.612;2023-02-28T08:55:49;0.90;;;0.80;;
29320;SDS011;16323;51.130;6.612;2023-02-28T08:58:22;1.88;;;0.85;;
29320;SDS011;16323;51.130;6.612;2023-02-28T09:00:51;1.80;;;0.82;;
29320;SDS011;16323;51.130;6.612;2023-02-28T09:03:18;1.48;;;0.70;;
29320;SDS011;16323;51.130;6.612;2023-02-28T09:05:51;1.55;;;0.80;;
29320;SDS011;16323;51.130;6.612;2023-02-28T09:08:19;0.80;;;0.65;;
29320;SDS011;16323;51.130;6.612;2023-02-28T09:10:46;1.58;;;0.70;;
29320;SDS011;16323;51.130;6.612;2023-02-28T09:13:13;1.38;;;0.57;;
29320;SDS011;16323;51.130;6.612;2023-02-28T09:15:40;2.70;;;0.68;;
29320;SDS011;16323;51.130;6.612;2023-02-28T09:18:08;1.85;;;0.70;;
29320;SDS011;16323;51.130;6.612;2023-02-28T09:20:37;1.50;;;0.70;;
29320;SDS011;16323;51.130;6.612;2023-02-28T09:23:04;1.67;;;0.60;;
29320;SDS011;16323;51.130;6.612;2023-02-28T09:25:31;1.63;;;0.70;;
29320;SDS011;16323;51.130;6.612;2023-02-28T09:27:58;0.85;;;0.55;;
29320;SDS011;16323;51.130;6.612;2023-02-28T09:30:25;1.88;;;0.70;;
29320;SDS011;16323;51.130;6.612;2023-02-28T09:32:53;1.17;;;0.80;;
29320;SDS011;16323;51.130;6.612;2023-02-28T09:35:22;1.45;;;0.80;;
29320;SDS011;16323;51.130;6.612;2023-02-28T09:37:52;0.68;;;0.65;;
29320;SDS011;16323;51.130;6.612;2023-02-28T09:40:19;1.65;;;0.93;;
29320;SDS011;16323;51.130;6.612;2023-02-28T09:44:07;1.50;;;0.63;;
29320;SDS011;16323;51.130;6.612;2023-02-28T09:45:59;1.65;;;0.68;;
29320;SDS011;16323;51.130;6.612;2023-02-28T10:33:09;0.82;;;0.60;;
29320;SDS011;16323;51.130;6.612;2023-02-28T10:36:24;0.82;;;0.60;;
29320;SDS011;16323;51.130;6.612;2023-02-28T14:08:49;16.35;;;1.98;;
29320;SDS011;16323;51.130;6.612;2023-02-28T14:11:26;10.35;;;0.98;;
29320;SDS011;16323;51.130;6.612;2023-02-28T14:13:56;4.10;;;1.25;;
29320;SDS011;16323;51.130;6.612;2023-02-28T14:16:23;4.68;;;0.90;;
29320;SDS011;16323;51.130;6.612;2023-02-28T14:18:55;3.88;;;0.90;;
29320;SDS011;16323;51.130;6.612;2023-02-28T14:21:26;5.57;;;0.73;;
29320;SDS011;16323;51.130;6.612;2023-02-28T14:30:03;3.25;;;0.90;;
29320;SDS011;16323;51.130;6.612;2023-02-28T14:32:41;2.08;;;0.90;;
29320;SDS011;16323;51.130;6.612;2023-02-28T14:35:27;0.90;;;0.70;;
29320;SDS011;16323;51.130;6.612;2023-02-28T14:38:16;1.20;;;0.73;;
29320;SDS011;16323;51.130;6.612;2023-02-28T14:40:52;1.27;;;0.70;;
29320;SDS011;16323;51.130;6.612;2023-02-28T14:43:24;2.90;;;1.02;;
29320;SDS011;16323;51.130;6.612;2023-02-28T14:45:55;1.35;;;1.00;;
29320;SDS011;16323;51.130;6.612;2023-02-28T14:48:26;1.85;;;0.80;;
29320;SDS011;16323;51.130;6.612;2023-02-28T14:50:56;1.95;;;1.02;;
29320;SDS011;16323;51.130;6.612;2023-02-28T14:53:29;1.58;;;0.80;;
29320;SDS011;16323;51.130;6.612;2023-02-28T14:56:04;1.33;;;0.65;;
29320;SDS011;16323;51.130;6.612;2023-02-28T14:58:33;2.28;;;0.65;;
29320;SDS011;16323;51.130;6.612;2023-02-28T17:23:08;1.50;;;0.70;;
29320;SDS011;16323;51.130;6.612;2023-02-28T17:25:35;1.08;;;0.70;;
29320;SDS011;16323;51.130;6.612;2023-02-28T17:28:02;2.13;;;0.80;;
29320;SDS011;16323;51.130;6.612;2023-02-28T17:30:31;2.15;;;0.95;;
29320;SDS011;16323;51.130;6.612;2023-02-28T17:33:00;2.47;;;1.02;;
29320;SDS011;16323;51.130;6.612;2023-02-28T17:35:27;2.72;;;1.05;;
29320;SDS011;16323;51.130;6.612;2023-02-28T17:37:54;4.15;;;1.00;;
29320;SDS011;16323;51.130;6.612;2023-02-28T17:40:27;1.98;;;1.10;;
29320;SDS011;16323;51.130;6.612;2023-02-28T17:42:54;1.60;;;1.02;;
29320;SDS011;16323;51.130;6.612;2023-02-28T17:45:23;3.97;;;2.20;;
29320;SDS011;16323;51.130;6.612;2023-02-28T17:47:52;6.90;;;2.63;;
29320;SDS011;16323;51.130;6.612;2023-02-28T17:50:21;2.92;;;1.65;;
29320;SDS011;16323;51.130;6.612;2023-02-28T17:52:50;2.63;;;1.83;;
29320;SDS011;16323;51.130;6.612;2023-02-28T17:55:21;3.45;;;1.85;;
29320;SDS011;16323;51.130;6.612;2023-02-28T17:57:52;3.13;;;1.52;;
29320;SDS011;16323;51.130;6.612;2023-02-28T18:00:20;3.38;;;1.58;;
29320;SDS011;16323;51.130;6.612;2023-02-28T18:02:51;2.85;;;1.60;;
29320;SDS011;16323;51.130;6.612;2023-02-28T19:17:20;2.17;;;1.30;;
29320;SDS011;16323;51.130;6.612;2023-02-28T19:19:47;1.50;;;1.00;;
29320;SDS011;16323;51.130;6.612;2023-02-28T19:22:13;1.83;;;1.30;;
29320;SDS011;16323;51.130;6.612;2023-02-28T19:24:40;2.83;;;1.40;;
29320;SDS011;16323;51.130;6.612;2023-02-28T19:27:09;2.67;;;1.52;;
29320;SDS011;16323;51.130;6.612;2023-02-28T19:29:36;2.97;;;1.27;;
29320;SDS011;16323;51.130;6.612;2023-02-28T19:32:04;1.55;;;1.13;;
29320;SDS011;16323;51.130;6.612;2023-02-28T19:34:36;2.03;;;1.48;;
29320;SDS011;16323;51.130;6.612;2023-02-28T19:37:06;3.38;;;1.33;;
29320;SDS011;16323;51.130;6.612;2023-02-28T19:39:36;1.77;;;1.13;;
29320;SDS011;16323;51.130;6.612;2023-02-28T19:42:06;1.38;;;1.10;;
29320;SDS011;16323;51.130;6.612;2023-02-28T19:44:34;1.92;;;1.10;;
29320;SDS011;16323;51.130;6.612;2023-02-28T19:47:03;3.08;;;1.50;;
29320;SDS011;16323;51.130;6.612;2023-02-28T19:49:32;2.70;;;1.52;;
29320;SDS011;16323;51.130;6.612;2023-02-28T19:52:04;2.15;;;1.30;;
29320;SDS011;16323;51.130;6.612;2023-02-28T19:54:32;2.72;;;1.30;;
29320;SDS011;16323;51.130;6.612;2023-02-28T19:57:01;1.17;;;0.82;;
29320;SDS011;16323;51.130;6.612;2023-02-28T19:59:30;2.10;;;1.13;;
29320;SDS011;16323;51.130;6.612;2023-02-28T20:02:00;2.88;;;1.17;;
29320;SDS011;16323;51.130;6.612;2023-02-28T20:04:28;1.88;;;1.20;;
29320;SDS011;16323;51.130;6.612;2023-02-28T20:06:59;2.30;;;1.33;;
29320;SDS011;16323;51.130;6.612;2023-02-28T20:09:29;2.17;;;1.13;;
29320;SDS011;16323;51.130;6.612;2023-02-28T20:11:56;3.67;;;1.45;;
29320;SDS011;16323;51.130;6.612;2023-02-28T20:14:26;1.67;;;1.10;;
29320;SDS011;16323;51.130;6.612;2023-02-28T20:16:55;2.00;;;1.33;;
29320;SDS011;16323;51.130;6.612;2023-02-28T20:19:23;3.38;;;1.58;;
29320;SDS011;16323;51.130;6.612;2023-02-28T20:21:52;2.03;;;1.05;;
29320;SDS011;16323;51.130;6.612;2023-02-28T20:24:26;1.40;;;1.00;;
29320;SDS011;16323;51.130;6.612;2023-02-28T20:26:54;2.75;;;1.33;;
29320;SDS011;16323;51.130;6.612;2023-02-28T20:29:23;2.15;;;1.35;;
29320;SDS011;16323;51.130;6.612;2023-02-28T20:31:51;2.45;;;1.38;;
29320;SDS011;16323;51.130;6.612;2023-02-28T20:34:21;2.92;;;1.55;;
29320;SDS011;16323;51.130;6.612;2023-02-28T20:36:51;2.05;;;1.50;;
29320;SDS011;16323;51.130;6.612;2023-02-28T20:39:20;2.75;;;1.60;;
29320;SDS011;16323;51.130;6.612;2023-02-28T20:41:49;4.93;;;1.42;;
29320;SDS011;16323;51.130;6.612;2023-02-28T20:44:17;3.22;;;1.65;;
29320;SDS011;16323;51.130;6.612;2023-02-28T20:46:44;3.63;;;1.83;;
29320;SDS011;16323;51.130;6.612;2023-02-28T20:49:12;4.50;;;1.48;;
29320;SDS011;16323;51.130;6.612;2023-02-28T20:51:42;2.53;;;1.40;;
29320;SDS011;16323;51.130;6.612;2023-02-28T20:54:11;3.28;;;1.20;;
29320;SDS011;16323;51.130;6.612;2023-02-28T20:56:41;2.78;;;1.63;;
29320;SDS011;16323;51.130;6.612;2023-02-28T20:59:12;2.00;;;1.40;;
29320;SDS011;16323;51.130;6.612;2023-02-28T21:01:39;3.55;;;1.80;;
29320;SDS011;16323;51.130;6.612;2023-02-28T21:04:08;2.25;;;1.75;;
29320;SDS011;16323;51.130;6.612;2023-02-28T21:06:36;3.60;;;1.70;;
29320;SDS011;16323;51.130;6.612;2023-02-28T21:09:07;2.35;;;1.40;;
29320;SDS011;16323;51.130;6.612;2023-02-28T21:11:36;3.80;;;1.50;;
29320;SDS011;16323;51.130;6.612;2023-02-28T21:14:05;2.40;;;1.65;;
29320;SDS011;16323;51.130;6.612;2023-02-28T21:16:39;4.95;;;1.33;;
29320;SDS011;16323;51.130;6.612;2023-02-28T21:19:08;2.58;;;1.45;;
29320;SDS011;16323;51.130;6.612;2023-02-28T21:21:37;1.70;;;1.40;;
29320;SDS011;16323;51.130;6.612;2023-02-28T21:24:08;2.95;;;1.23;;
29320;SDS011;16323;51.130;6.612;2023-02-28T21:26:37;2.03;;;1.30;;
29320;SDS011;16323;51.130;6.612;2023-02-28T21:29:06;2.15;;;1.30;;
29320;SDS011;16323;51.130;6.612;2023-02-28T21:31:35;2.20;;;1.20;;
29320;SDS011;16323;51.130;6.612;2023-02-28T21:34:09;1.90;;;1.33;;
29320;SDS011;16323;51.130;6.612;2023-02-28T21:36:38;2.72;;;1.40;;
29320;SDS011;16323;51.130;6.612;2023-02-28T21:39:11;3.72;;;1.80;;
29320;SDS011;16323;51.130;6.612;2023-02-28T21:41:41;3.25;;;1.85;;
29320;SDS011;16323;51.130;6.612;2023-02-28T21:44:10;3.15;;;1.95;;
29320;SDS011;16323;51.130;6.612;2023-02-28T21:46:45;2.55;;;1.25;;
29320;SDS011;16323;51.130;6.612;2023-02-28T21:49:16;2.30;;;1.42;;
29320;SDS011;16323;51.130;6.612;2023-02-28T21:51:44;2.80;;;1.55;;
29320;SDS011;16323;51.130;6.612;2023-02-28T21:54:13;2.88;;;1.33;;
29320;SDS011;16323;51.130;6.612;2023-02-28T21:56:43;2.03;;;1.42;;
29320;SDS011;16323;51.130;6.612;2023-02-28T21:59:14;2.20;;;1.33;;
29320;SDS011;16323;51.130;6.612;2023-02-28T22:01:44;2.83;;;1.30;;
29320;SDS011;16323;51.130;6.612;2023-02-28T22:04:17;2.85;;;1.65;;
29320;SDS011;16323;51.130;6.612;2023-02-28T22:06:46;2.30;;;1.58;;
29320;SDS011;16323;51.130;6.612;2023-02-28T22:09:15;2.33;;;1.20;;
29320;SDS011;16323;51.130;6.612;2023-02-28T22:11:44;2.55;;;1.50;;
29320;SDS011;16323;51.130;6.612;2023-02-28T22:14:13;2.22;;;1.40;;
29320;SDS011;16323;51.130;6.612;2023-02-28T22:16:43;2.58;;;1.42;;
29320;SDS011;16323;51.130;6.612;2023-02-28T22:19:12;2.22;;;1.17;;
29320;SDS011;16323;51.130;6.612;2023-02-28T22:21:41;3.08;;;1.33;;
29320;SDS011;16323;51.130;6.612;2023-02-28T22:24:11;2.60;;;1.40;;
29320;SDS011;16323;51.130;6.612;2023-02-28T22:26:41;2.30;;;1.40;;
29320;SDS011;16323;51.130;6.612;2023-02-28T22:29:11;4.78;;;1.65;;
29320;SDS011;16323;51.130;6.612;2023-02-28T22:31:40;2.53;;;1.50;;
29320;SDS011;16323;51.130;6.612;2023-02-28T22:34:10;4.40;;;1.58;;
29320;SDS011;16323;51.130;6.612;2023-02-28T22:36:42;3.38;;;1.60;;
29320;SDS011;16323;51.130;6.612;2023-02-28T22:39:09;3.78;;;1.67;;
29320;SDS011;16323;51.130;6.612;2023-02-28T22:41:38;2.67;;;1.55;;
29320;SDS011;16323;51.130;6.612;2023-02-28T22:44:06;2.83;;;1.70;;
29320;SDS011;16323;51.130;6.612;2023-02-28T22:46:36;2.33;;;1.40;;
29320;SDS011;16323;51.130;6.612;2023-02-28T22:49:05;2.60;;;1.65;;
29320;SDS011;16323;51.130;6.612;2023-02-28T22:51:35;3.80;;;2.05;;
29320;SDS011;16323;51.130;6.612;2023-02-28T22:54:07;2.83;;;1.50;;
29320;SDS011;16323;51.130;6.612;2023-02-28T22:56:36;2.85;;;1.65;;
29320;SDS011;16323;51.130;6.612;2023-02-28T22:59:04;2.08;;;1.42;;
29320;SDS011;16323;51.130;6.612;2023-02-28T23:01:33;3.17;;;1.70;;
29320;SDS011;16323;51.130;6.612;2023-02-28T23:04:02;2.33;;;1.67;;
29320;SDS011;16323;51.130;6.612;2023-02-28T23:06:33;3.53;;;1.80;;
29320;SDS011;16323;51.130;6.612;2023-02-28T23:09:10;2.63;;;1.52;;
29320;SDS011;16323;51.130;6.612;2023-02-28T23:11:42;3.08;;;1.63;;
29320;SDS011;16323;51.130;6.612;2023-02-28T23:14:16;2.92;;;1.70;;
29320;SDS011;16323;51.130;6.612;2023-02-28T23:16:46;3.92;;;1.70;;
29320;SDS011;16323;51.130;6.612;2023-02-28T23:19:17;3.35;;;1.95;;
29320;SDS011;16323;51.130;6.612;2023-02-28T23:21:50;3.97;;;1.95;;
29320;SDS011;16323;51.130;6.612;2023-02-28T23:24:23;2.33;;;1.45;;
29320;SDS011;16323;51.130;6.612;2023-02-28T23:26:54;3.25;;;1.90;;
29320;SDS011;16323;51.130;6.612;2023-02-28T23:29:25;2.55;;;1.63;;
29320;SDS011;16323;51.130;6.612;2023-02-28T23:31:56;2.20;;;1.63;;
29320;SDS011;16323;51.130;6.612;2023-02-28T23:34:24;2.95;;;1.70;;
29320;SDS011;16323;51.130;6.612;2023-02-28T23:36:55;3.00;;;1.80;;
29320;SDS011;16323;51.130;6.612;2023-02-28T23:39:28;3.50;;;1.45;;
29320;SDS011;16323;51.130;6.612;2023-02-28T23:41:58;3.00;;;1.63;;
29320;SDS011;16323;51.130;6.612;2023-02-28T23:44:26;3.63;;;2.00;;
29320;SDS011;16323;51.130;6.612;2023-02-28T23:46:56;2.90;;;1.77;;
29320;SDS011;16323;51.130;6.612;2023-02-28T23:49:25;4.95;;;2.30;;
